sensor_id;sensor_type;location;lat;lon;timestamp;pressure;altitude;pressure_sealevel;temperature;humidity
30618;BME280;17384;51.214;9.202;2024-03-17T00:00:13;99421.31;;;4.89;85.56
30618;BME280;17384;51.214;9.202;2024-03-17T00:02:40;99420.47;;;4.88;85.71
30618;BME280;17384;51.214;9.202;2024-03-17T00:05:06;99415.78;;;4.90;85.86
30618;BME280;17384;51.214;9.202;2024-03-17T00:07:32;99414.91;;;4.82;86.17
30618;BME280;17384;51.214;9.202;2024-03-17T00:09:57;99421.97;;;4.83;86.62
30618;BME280;17384;51.214;9.202;2024-03-17T00:12:22;99411.34;;;4.73;87.10
30618;BME280;17384;51.214;9.202;2024-03-17T00:14:48;99411.81;;;4.68;87.39
30618;BME280;17384;51.214;9.202;2024-03-17T00:17:13;99405.94;;;4.57;87.94
30618;BME280;17384;51.214;9.202;2024-03-17T00:19:40;99426.72;;;4.55;87.97
30618;BME280;17384;51.214;9.202;2024-03-17T00:22:05;99403.88;;;4.51;87.63
30618;BME280;17384;51.214;9.202;2024-03-17T00:24:31;99411.56;;;4.46;88.16
30618;BME280;17384;51.214;9.202;2024-03-17T00:27:02;99402.47;;;4.38;88.23
30618;BME280;17384;51.214;9.202;2024-03-17T00:29:28;99409.00;;;4.28;88.64
30618;BME280;17384;51.214;9.202;2024-03-17T00:31:53;99408.84;;;4.29;88.80
30618;BME280;17384;51.214;9.202;2024-03-17T00:34:19;99415.47;;;4.17;89.54
30618;BME280;17384;51.214;9.202;2024-03-17T00:36:45;99409.09;;;4.18;89.59
30618;BME280;17384;51.214;9.202;2024-03-17T00:39:11;99412.53;;;4.02;89.82
30618;BME280;17384;51.214;9.202;2024-03-17T00:41:36;99411.59;;;3.86;90.73
30618;BME280;17384;51.214;9.202;2024-03-17T00:44:01;99403.06;;;3.64;91.40
30618;BME280;17384;51.214;9.202;2024-03-17T00:46:28;99410.88;;;3.76;91.83
30618;BME280;17384;51.214;9.202;2024-03-17T00:48:53;99405.03;;;3.80;91.58
30618;BME280;17384;51.214;9.202;2024-03-17T00:51:18;99404.34;;;3.78;91.90
30618;BME280;17384;51.214;9.202;2024-03-17T00:53:44;99402.13;;;3.73;92.23
30618;BME280;17384;51.214;9.202;2024-03-17T00:56:09;99400.19;;;3.40;92.57
30618;BME280;17384;51.214;9.202;2024-03-17T00:58:35;99395.97;;;3.37;93.74
30618;BME280;17384;51.214;9.202;2024-03-17T01:01:00;99392.59;;;3.35;93.81
30618;BME280;17384;51.214;9.202;2024-03-17T01:03:25;99395.28;;;3.35;94.23
30618;BME280;17384;51.214;9.202;2024-03-17T01:05:52;99388.47;;;3.41;94.57
30618;BME280;17384;51.214;9.202;2024-03-17T01:08:18;99383.72;;;3.35;94.85
30618;BME280;17384;51.214;9.202;2024-03-17T01:10:45;99376.53;;;3.35;95.10
30618;BME280;17384;51.214;9.202;2024-03-17T01:13:10;99374.44;;;3.29;95.09
30618;BME280;17384;51.214;9.202;2024-03-17T01:15:37;99382.50;;;3.29;95.38
30618;BME280;17384;51.214;9.202;2024-03-17T01:18:04;99378.78;;;3.22;95.13
30618;BME280;17384;51.214;9.202;2024-03-17T01:20:30;99376.41;;;3.19;94.77
30618;BME280;17384;51.214;9.202;2024-03-17T01:22:55;99388.97;;;3.19;94.76
30618;BME280;17384;51.214;9.202;2024-03-17T01:25:20;99376.47;;;3.10;95.19
30618;BME280;17384;51.214;9.202;2024-03-17T01:27:46;99391.16;;;2.70;95.98
30618;BME280;17384;51.214;9.202;2024-03-17T01:30:12;99383.19;;;2.78;96.46
30618;BME280;17384;51.214;9.202;2024-03-17T01:32:37;99374.00;;;2.81;96.17
30618;BME280;17384;51.214;9.202;2024-03-17T01:35:03;99374.41;;;2.68;96.07
30618;BME280;17384;51.214;9.202;2024-03-17T01:37:28;99369.94;;;2.59;96.66
30618;BME280;17384;51.214;9.202;2024-03-17T01:39:57;99350.59;;;2.65;96.79
30618;BME280;17384;51.214;9.202;2024-03-17T01:42:22;99361.66;;;2.52;96.80
30618;BME280;17384;51.214;9.202;2024-03-17T01:44:48;99364.03;;;2.55;97.62
30618;BME280;17384;51.214;9.202;2024-03-17T01:47:15;99365.56;;;2.58;97.35
30618;BME280;17384;51.214;9.202;2024-03-17T01:49:41;99355.47;;;2.52;97.08
30618;BME280;17384;51.214;9.202;2024-03-17T01:52:06;99348.78;;;2.38;97.09
30618;BME280;17384;51.214;9.202;2024-03-17T01:54:32;99342.78;;;2.26;97.50
30618;BME280;17384;51.214;9.202;2024-03-17T01:56:57;99358.25;;;2.32;97.89
30618;BME280;17384;51.214;9.202;2024-03-17T01:59:23;99356.84;;;2.11;97.92
30618;BME280;17384;51.214;9.202;2024-03-17T02:01:48;99348.94;;;2.09;98.34
30618;BME280;17384;51.214;9.202;2024-03-17T02:04:14;99342.31;;;2.13;98.57
30618;BME280;17384;51.214;9.202;2024-03-17T02:06:39;99343.16;;;2.14;98.59
30618;BME280;17384;51.214;9.202;2024-03-17T02:09:04;99348.94;;;2.09;98.74
30618;BME280;17384;51.214;9.202;2024-03-17T02:11:32;99349.53;;;2.03;99.26
30618;BME280;17384;51.214;9.202;2024-03-17T02:13:58;99334.13;;;1.87;99.75
30618;BME280;17384;51.214;9.202;2024-03-17T02:16:24;99342.75;;;1.81;100.00
30618;BME280;17384;51.214;9.202;2024-03-17T02:18:57;99324.00;;;1.81;100.00
30618;BME280;17384;51.214;9.202;2024-03-17T02:21:23;99322.59;;;1.87;100.00
30618;BME280;17384;51.214;9.202;2024-03-17T02:23:50;99324.81;;;1.91;100.00
30618;BME280;17384;51.214;9.202;2024-03-17T02:26:16;99311.59;;;1.90;100.00
30618;BME280;17384;51.214;9.202;2024-03-17T02:28:42;99321.63;;;1.78;100.00
30618;BME280;17384;51.214;9.202;2024-03-17T02:31:09;99318.81;;;1.80;100.00
30618;BME280;17384;51.214;9.202;2024-03-17T02:33:35;99311.06;;;1.77;100.00
30618;BME280;17384;51.214;9.202;2024-03-17T02:36:01;99315.44;;;1.78;100.00
30618;BME280;17384;51.214;9.202;2024-03-17T02:38:26;99314.59;;;1.77;100.00
30618;BME280;17384;51.214;9.202;2024-03-17T02:41:10;99307.16;;;1.71;100.00
30618;BME280;17384;51.214;9.202;2024-03-17T02:43:36;99317.78;;;1.44;100.00
30618;BME280;17384;51.214;9.202;2024-03-17T02:46:02;99301.38;;;1.29;100.00
30618;BME280;17384;51.214;9.202;2024-03-17T02:48:30;99305.06;;;1.18;100.00
30618;BME280;17384;51.214;9.202;2024-03-17T02:50:55;99292.59;;;1.09;100.00
30618;BME280;17384;51.214;9.202;2024-03-17T02:53:21;99305.91;;;1.19;100.00
30618;BME280;17384;51.214;9.202;2024-03-17T02:55:47;99288.38;;;1.07;100.00
30618;BME280;17384;51.214;9.202;2024-03-17T02:58:12;99287.94;;;1.01;100.00
30618;BME280;17384;51.214;9.202;2024-03-17T03:00:37;99289.91;;;0.99;100.00
30618;BME280;17384;51.214;9.202;2024-03-17T03:03:03;99284.84;;;1.06;100.00
30618;BME280;17384;51.214;9.202;2024-03-17T03:05:29;99283.41;;;1.12;100.00
30618;BME280;17384;51.214;9.202;2024-03-17T03:07:55;99282.13;;;1.16;100.00
30618;BME280;17384;51.214;9.202;2024-03-17T03:10:20;99287.34;;;1.17;100.00
30618;BME280;17384;51.214;9.202;2024-03-17T03:12:46;99302.84;;;1.04;100.00
30618;BME280;17384;51.214;9.202;2024-03-17T03:15:11;99298.78;;;1.00;100.00
30618;BME280;17384;51.214;9.202;2024-03-17T03:17:36;99289.63;;;1.02;100.00
30618;BME280;17384;51.214;9.202;2024-03-17T03:20:02;99287.94;;;1.01;100.00
30618;BME280;17384;51.214;9.202;2024-03-17T03:22:28;99296.09;;;1.00;100.00
30618;BME280;17384;51.214;9.202;2024-03-17T03:24:53;99289.91;;;0.99;100.00
30618;BME280;17384;51.214;9.202;2024-03-17T03:27:19;99297.50;;;0.94;100.00
30618;BME280;17384;51.214;9.202;2024-03-17T03:29:44;99307.91;;;0.88;100.00
30618;BME280;17384;51.214;9.202;2024-03-17T03:32:09;99298.63;;;0.82;100.00
30618;BME280;17384;51.214;9.202;2024-03-17T03:34:35;99303.16;;;0.82;100.00
30618;BME280;17384;51.214;9.202;2024-03-17T03:37:00;99283.91;;;0.78;100.00
30618;BME280;17384;51.214;9.202;2024-03-17T03:39:25;99293.16;;;0.55;100.00
30618;BME280;17384;51.214;9.202;2024-03-17T03:41:56;99292.91;;;0.48;100.00
30618;BME280;17384;51.214;9.202;2024-03-17T03:44:22;99290.91;;;0.41;100.00
30618;BME280;17384;51.214;9.202;2024-03-17T03:46:47;99294.59;;;0.49;100.00
30618;BME280;17384;51.214;9.202;2024-03-17T03:49:13;99289.94;;;0.51;100.00
30618;BME280;17384;51.214;9.202;2024-03-17T03:51:38;99285.88;;;0.47;100.00
30618;BME280;17384;51.214;9.202;2024-03-17T03:54:05;99290.50;;;0.45;100.00
30618;BME280;17384;51.214;9.202;2024-03-17T03:56:31;99279.09;;;0.33;100.00
30618;BME280;17384;51.214;9.202;2024-03-17T03:58:57;99276.28;;;0.35;100.00
30618;BME280;17384;51.214;9.202;2024-03-17T04:01:22;99289.50;;;0.37;100.00
30618;BME280;17384;51.214;9.202;2024-03-17T04:03:48;99286.56;;;0.40;100.00
30618;BME280;17384;51.214;9.202;2024-03-17T04:06:14;99292.44;;;0.33;100.00
30618;BME280;17384;51.214;9.202;2024-03-17T04:08:41;99280.66;;;0.36;100.00
30618;BME280;17384;51.214;9.202;2024-03-17T04:11:07;99289.38;;;0.38;100.00
30618;BME280;17384;51.214;9.202;2024-03-17T04:13:32;99295.53;;;0.39;100.00
30618;BME280;17384;51.214;9.202;2024-03-17T04:15:58;99283.72;;;0.31;100.00
30618;BME280;17384;51.214;9.202;2024-03-17T04:18:25;99283.72;;;0.31;100.00
30618;BME280;17384;51.214;9.202;2024-03-17T04:20:54;99296.66;;;0.26;100.00
30618;BME280;17384;51.214;9.202;2024-03-17T04:23:20;99289.34;;;0.28;100.00
30618;BME280;17384;51.214;9.202;2024-03-17T04:25:47;99300.31;;;0.25;100.00
30618;BME280;17384;51.214;9.202;2024-03-17T04:28:13;99301.41;;;0.13;100.00
30618;BME280;17384;51.214;9.202;2024-03-17T04:30:39;99313.75;;;0.14;100.00
30618;BME280;17384;51.214;9.202;2024-03-17T04:33:04;99301.13;;;0.16;100.00
30618;BME280;17384;51.214;9.202;2024-03-17T04:35:35;99317.13;;;0.16;100.00
30618;BME280;17384;51.214;9.202;2024-03-17T04:38:00;99325.38;;;0.04;100.00
30618;BME280;17384;51.214;9.202;2024-03-17T04:40:25;99321.53;;;-0.13;100.00
30618;BME280;17384;51.214;9.202;2024-03-17T04:42:51;99317.50;;;-0.08;100.00
30618;BME280;17384;51.214;9.202;2024-03-17T04:45:16;99318.06;;;-0.04;100.00
30618;BME280;17384;51.214;9.202;2024-03-17T04:47:41;99324.25;;;-0.04;100.00
30618;BME280;17384;51.214;9.202;2024-03-17T04:50:07;99320.03;;;-0.06;100.00
30618;BME280;17384;51.214;9.202;2024-03-17T04:52:32;99319.06;;;-0.05;100.00
30618;BME280;17384;51.214;9.202;2024-03-17T04:54:58;99327.06;;;-0.05;100.00
30618;BME280;17384;51.214;9.202;2024-03-17T04:57:23;99326.91;;;-0.04;100.00
30618;BME280;17384;51.214;9.202;2024-03-17T04:59:48;99327.19;;;-0.07;100.00
30618;BME280;17384;51.214;9.202;2024-03-17T05:02:13;99320.63;;;0.07;100.00
30618;BME280;17384;51.214;9.202;2024-03-17T05:04:39;99326.34;;;0.03;100.00
30618;BME280;17384;51.214;9.202;2024-03-17T05:07:04;99333.06;;;-0.13;100.00
30618;BME280;17384;51.214;9.202;2024-03-17T05:09:30;99335.91;;;-0.05;100.00
30618;BME280;17384;51.214;9.202;2024-03-17T05:11:55;99337.41;;;-0.12;100.00
30618;BME280;17384;51.214;9.202;2024-03-17T05:14:20;99340.88;;;-0.21;100.00
30618;BME280;17384;51.214;9.202;2024-03-17T05:16:50;99333.28;;;-0.25;100.00
30618;BME280;17384;51.214;9.202;2024-03-17T05:19:15;99340.88;;;-0.21;100.00
30618;BME280;17384;51.214;9.202;2024-03-17T05:21:42;99331.19;;;-0.22;100.00
30618;BME280;17384;51.214;9.202;2024-03-17T05:24:07;99348.53;;;-0.37;100.00
30618;BME280;17384;51.214;9.202;2024-03-17T05:26:33;99342.81;;;-0.32;100.00
30618;BME280;17384;51.214;9.202;2024-03-17T05:28:58;99345.91;;;-0.27;100.00
30618;BME280;17384;51.214;9.202;2024-03-17T05:31:24;99333.59;;;-0.19;100.00
30618;BME280;17384;51.214;9.202;2024-03-17T05:33:49;99332.75;;;-0.19;100.00
30618;BME280;17384;51.214;9.202;2024-03-17T05:36:15;99344.00;;;-0.16;100.00
30618;BME280;17384;51.214;9.202;2024-03-17T05:38:40;99337.09;;;-0.18;100.00
30618;BME280;17384;51.214;9.202;2024-03-17T05:41:08;99337.09;;;-0.18;100.00
30618;BME280;17384;51.214;9.202;2024-03-17T05:43:35;99340.91;;;-0.11;100.00
30618;BME280;17384;51.214;9.202;2024-03-17T05:46:02;99333.31;;;-0.16;100.00
30618;BME280;17384;51.214;9.202;2024-03-17T05:48:39;99331.59;;;-0.26;100.00
30618;BME280;17384;51.214;9.202;2024-03-17T05:51:09;99336.13;;;-0.17;100.00
30618;BME280;17384;51.214;9.202;2024-03-17T05:53:37;99337.00;;;-0.07;100.00
30618;BME280;17384;51.214;9.202;2024-03-17T05:56:05;99342.06;;;-0.04;100.00
30618;BME280;17384;51.214;9.202;2024-03-17T05:58:32;99337.59;;;0.06;100.00
30618;BME280;17384;51.214;9.202;2024-03-17T06:01:02;99336.09;;;0.13;100.00
30618;BME280;17384;51.214;9.202;2024-03-17T06:03:27;99331.81;;;0.01;100.00
30618;BME280;17384;51.214;9.202;2024-03-17T06:05:52;99309.53;;;0.12;100.00
30618;BME280;17384;51.214;9.202;2024-03-17T06:08:19;99314.34;;;0.27;100.00
30618;BME280;17384;51.214;9.202;2024-03-17T06:10:48;99319.56;;;0.39;100.00
30618;BME280;17384;51.214;9.202;2024-03-17T06:13:14;99324.63;;;0.42;100.00
30618;BME280;17384;51.214;9.202;2024-03-17T06:15:42;99317.06;;;0.47;100.00
30618;BME280;17384;51.214;9.202;2024-03-17T06:18:10;99331.94;;;0.59;100.00
30618;BME280;17384;51.214;9.202;2024-03-17T06:20:42;99317.47;;;0.71;100.00
30618;BME280;17384;51.214;9.202;2024-03-17T06:23:08;99327.59;;;0.77;100.00
30618;BME280;17384;51.214;9.202;2024-03-17T06:25:41;99328.03;;;1.01;100.00
30618;BME280;17384;51.214;9.202;2024-03-17T06:28:08;99334.88;;;1.33;100.00
30618;BME280;17384;51.214;9.202;2024-03-17T06:30:33;99335.88;;;1.69;100.00
30618;BME280;17384;51.214;9.202;2024-03-17T06:33:00;99340.03;;;1.91;100.00
30618;BME280;17384;51.214;9.202;2024-03-17T06:35:26;99344.75;;;2.07;100.00
30618;BME280;17384;51.214;9.202;2024-03-17T06:37:52;99345.75;;;2.23;100.00
30618;BME280;17384;51.214;9.202;2024-03-17T06:40:18;99344.16;;;2.58;100.00
30618;BME280;17384;51.214;9.202;2024-03-17T06:42:44;99346.00;;;2.93;99.93
30618;BME280;17384;51.214;9.202;2024-03-17T06:45:09;99353.84;;;3.30;96.96
30618;BME280;17384;51.214;9.202;2024-03-17T06:47:38;99354.78;;;3.64;95.16
30618;BME280;17384;51.214;9.202;2024-03-17T06:50:04;99372.84;;;3.88;93.44
30618;BME280;17384;51.214;9.202;2024-03-17T06:52:30;99373.34;;;4.18;91.54
30618;BME280;17384;51.214;9.202;2024-03-17T06:54:56;99380.97;;;4.38;90.06
30618;BME280;17384;51.214;9.202;2024-03-17T06:57:23;99380.19;;;4.46;88.67
30618;BME280;17384;51.214;9.202;2024-03-17T06:59:48;99370.66;;;4.68;87.77
30618;BME280;17384;51.214;9.202;2024-03-17T07:02:13;99360.16;;;4.91;86.74
30618;BME280;17384;51.214;9.202;2024-03-17T07:04:42;99374.59;;;4.90;86.22
30618;BME280;17384;51.214;9.202;2024-03-17T07:07:08;99371.06;;;4.81;85.79
30618;BME280;17384;51.214;9.202;2024-03-17T07:09:33;99381.13;;;4.79;85.18
30618;BME280;17384;51.214;9.202;2024-03-17T07:11:58;99355.44;;;4.85;85.25
30618;BME280;17384;51.214;9.202;2024-03-17T07:14:24;99357.28;;;5.00;85.08
30618;BME280;17384;51.214;9.202;2024-03-17T07:16:51;99369.94;;;5.32;84.70
30618;BME280;17384;51.214;9.202;2024-03-17T07:19:16;99375.28;;;5.73;84.47
30618;BME280;17384;51.214;9.202;2024-03-17T07:21:41;99377.25;;;6.11;83.96
30618;BME280;17384;51.214;9.202;2024-03-17T07:24:07;99381.69;;;6.43;81.91
30618;BME280;17384;51.214;9.202;2024-03-17T07:26:32;99379.06;;;6.58;79.84
30618;BME280;17384;51.214;9.202;2024-03-17T07:28:58;99385.41;;;6.34;80.39
30618;BME280;17384;51.214;9.202;2024-03-17T07:31:23;99374.97;;;6.31;81.10
30618;BME280;17384;51.214;9.202;2024-03-17T07:33:48;99389.00;;;6.58;81.87
30618;BME280;17384;51.214;9.202;2024-03-17T07:36:14;99382.94;;;6.95;80.24
30618;BME280;17384;51.214;9.202;2024-03-17T07:38:39;99385.94;;;7.45;79.11
30618;BME280;17384;51.214;9.202;2024-03-17T07:41:07;99376.34;;;7.80;77.30
30618;BME280;17384;51.214;9.202;2024-03-17T07:43:37;99388.50;;;8.14;76.98
30618;BME280;17384;51.214;9.202;2024-03-17T07:46:10;99391.13;;;8.52;76.02
30618;BME280;17384;51.214;9.202;2024-03-17T07:48:38;99390.31;;;8.87;74.84
30618;BME280;17384;51.214;9.202;2024-03-17T07:51:09;99395.66;;;9.16;73.39
30618;BME280;17384;51.214;9.202;2024-03-17T07:53:36;99400.44;;;9.57;73.03
30618;BME280;17384;51.214;9.202;2024-03-17T07:56:03;99401.25;;;9.79;70.66
30618;BME280;17384;51.214;9.202;2024-03-17T07:58:29;99405.59;;;10.01;70.35
30618;BME280;17384;51.214;9.202;2024-03-17T08:00:59;99402.78;;;10.16;69.07
30618;BME280;17384;51.214;9.202;2024-03-17T08:03:25;99407.53;;;10.35;68.70
30618;BME280;17384;51.214;9.202;2024-03-17T08:05:51;99404.72;;;10.57;67.61
30618;BME280;17384;51.214;9.202;2024-03-17T08:08:17;99400.91;;;9.89;67.69
30618;BME280;17384;51.214;9.202;2024-03-17T08:10:43;99416.97;;;9.90;67.61
30618;BME280;17384;51.214;9.202;2024-03-17T08:13:08;99404.63;;;9.88;67.48
30618;BME280;17384;51.214;9.202;2024-03-17T08:15:38;99419.25;;;10.42;67.92
30618;BME280;17384;51.214;9.202;2024-03-17T08:18:03;99411.63;;;9.75;68.99
30618;BME280;17384;51.214;9.202;2024-03-17T08:20:36;99415.22;;;10.04;68.80
30618;BME280;17384;51.214;9.202;2024-03-17T08:23:01;99412.75;;;10.09;68.54
30618;BME280;17384;51.214;9.202;2024-03-17T08:25:27;99411.13;;;9.65;68.46
30618;BME280;17384;51.214;9.202;2024-03-17T08:27:52;99410.13;;;8.58;69.80
30618;BME280;17384;51.214;9.202;2024-03-17T08:30:17;99393.94;;;8.94;70.51
30618;BME280;17384;51.214;9.202;2024-03-17T08:32:43;99395.53;;;9.25;70.56
30618;BME280;17384;51.214;9.202;2024-03-17T08:35:10;99385.50;;;8.68;71.97
30618;BME280;17384;51.214;9.202;2024-03-17T08:37:38;99389.56;;;8.93;71.77
30618;BME280;17384;51.214;9.202;2024-03-17T08:40:03;99379.66;;;9.43;71.93
30618;BME280;17384;51.214;9.202;2024-03-17T08:42:31;99380.25;;;9.38;70.13
30618;BME280;17384;51.214;9.202;2024-03-17T08:44:57;99391.78;;;9.47;69.15
30618;BME280;17384;51.214;9.202;2024-03-17T08:47:22;99384.44;;;8.83;69.57
30618;BME280;17384;51.214;9.202;2024-03-17T08:49:50;99382.88;;;9.10;69.39
30618;BME280;17384;51.214;9.202;2024-03-17T08:52:16;99373.59;;;9.41;69.97
30618;BME280;17384;51.214;9.202;2024-03-17T08:54:41;99375.97;;;9.72;71.09
30618;BME280;17384;51.214;9.202;2024-03-17T08:57:08;99378.00;;;10.19;68.56
30618;BME280;17384;51.214;9.202;2024-03-17T08:59:33;99362.84;;;9.47;70.38
30618;BME280;17384;51.214;9.202;2024-03-17T09:01:58;99370.75;;;9.06;70.54
30618;BME280;17384;51.214;9.202;2024-03-17T09:04:23;99376.31;;;8.98;71.01
30618;BME280;17384;51.214;9.202;2024-03-17T09:06:49;99373.47;;;9.06;72.14
30618;BME280;17384;51.214;9.202;2024-03-17T09:09:15;99371.34;;;9.44;70.52
30618;BME280;17384;51.214;9.202;2024-03-17T09:11:40;99369.91;;;9.98;70.54
30618;BME280;17384;51.214;9.202;2024-03-17T09:14:05;99363.78;;;10.51;68.65
30618;BME280;17384;51.214;9.202;2024-03-17T09:16:31;99386.69;;;9.87;67.38
30618;BME280;17384;51.214;9.202;2024-03-17T09:18:57;99371.66;;;10.40;67.52
30618;BME280;17384;51.214;9.202;2024-03-17T09:21:22;99384.97;;;10.28;66.75
30618;BME280;17384;51.214;9.202;2024-03-17T09:23:48;99376.31;;;10.52;66.58
30618;BME280;17384;51.214;9.202;2024-03-17T09:26:13;99378.94;;;10.33;65.49
30618;BME280;17384;51.214;9.202;2024-03-17T09:28:42;99381.16;;;10.23;67.56
30618;BME280;17384;51.214;9.202;2024-03-17T09:31:10;99371.72;;;10.53;66.91
30618;BME280;17384;51.214;9.202;2024-03-17T09:33:36;99373.84;;;10.58;65.93
30618;BME280;17384;51.214;9.202;2024-03-17T09:36:10;99366.69;;;10.15;67.36
30618;BME280;17384;51.214;9.202;2024-03-17T09:38:38;99368.16;;;10.11;66.20
30618;BME280;17384;51.214;9.202;2024-03-17T09:41:03;99381.59;;;9.98;65.33
30618;BME280;17384;51.214;9.202;2024-03-17T09:43:31;99366.75;;;10.57;66.70
30618;BME280;17384;51.214;9.202;2024-03-17T09:45:58;99399.31;;;10.57;64.16
30618;BME280;17384;51.214;9.202;2024-03-17T09:48:24;99394.03;;;10.96;63.90
30618;BME280;17384;51.214;9.202;2024-03-17T09:50:51;99384.75;;;10.64;64.02
30618;BME280;17384;51.214;9.202;2024-03-17T09:53:26;99382.75;;;10.86;65.47
30618;BME280;17384;51.214;9.202;2024-03-17T09:55:55;99377.41;;;10.58;63.72
30618;BME280;17384;51.214;9.202;2024-03-17T09:58:22;99379.88;;;11.07;62.29
30618;BME280;17384;51.214;9.202;2024-03-17T10:00:47;99381.16;;;11.11;63.23
30618;BME280;17384;51.214;9.202;2024-03-17T10:03:48;99364.88;;;11.25;61.44
30618;BME280;17384;51.214;9.202;2024-03-17T10:06:19;99367.78;;;11.16;61.99
30618;BME280;17384;51.214;9.202;2024-03-17T10:08:49;99373.09;;;11.91;61.41
30618;BME280;17384;51.214;9.202;2024-03-17T10:11:17;99371.19;;;12.17;59.67
30618;BME280;17384;51.214;9.202;2024-03-17T10:13:47;99376.03;;;11.82;61.82
30618;BME280;17384;51.214;9.202;2024-03-17T10:16:25;99375.81;;;11.91;60.83
30618;BME280;17384;51.214;9.202;2024-03-17T10:19:05;99371.56;;;11.29;61.61
30618;BME280;17384;51.214;9.202;2024-03-17T10:21:32;99372.44;;;11.42;60.82
30618;BME280;17384;51.214;9.202;2024-03-17T10:24:11;99371.59;;;11.35;59.83
30618;BME280;17384;51.214;9.202;2024-03-17T10:26:53;99369.56;;;11.97;58.51
30618;BME280;17384;51.214;9.202;2024-03-17T10:34:22;99372.69;;;11.94;58.36
30618;BME280;17384;51.214;9.202;2024-03-17T10:37:06;99371.34;;;10.56;60.87
30618;BME280;17384;51.214;9.202;2024-03-17T10:39:32;99376.88;;;10.82;60.49
30618;BME280;17384;51.214;9.202;2024-03-17T10:42:01;99372.78;;;11.06;61.90
30618;BME280;17384;51.214;9.202;2024-03-17T10:44:37;99358.22;;;10.25;62.34
30618;BME280;17384;51.214;9.202;2024-03-17T10:47:03;99348.72;;;10.08;63.75
30618;BME280;17384;51.214;9.202;2024-03-17T10:49:35;99368.38;;;10.51;63.82
30618;BME280;17384;51.214;9.202;2024-03-17T10:52:03;99356.69;;;10.50;62.04
30618;BME280;17384;51.214;9.202;2024-03-17T10:54:29;99351.97;;;10.66;62.81
30618;BME280;17384;51.214;9.202;2024-03-17T10:57:07;99359.06;;;10.67;62.70
30618;BME280;17384;51.214;9.202;2024-03-17T10:59:41;99345.81;;;10.44;63.29
30618;BME280;17384;51.214;9.202;2024-03-17T11:02:20;99343.56;;;10.54;63.16
30618;BME280;17384;51.214;9.202;2024-03-17T11:04:51;99344.78;;;11.06;61.72
30618;BME280;17384;51.214;9.202;2024-03-17T11:07:18;99343.38;;;11.30;61.92
30618;BME280;17384;51.214;9.202;2024-03-17T11:09:45;99354.03;;;11.31;62.81
30618;BME280;17384;51.214;9.202;2024-03-17T11:17:49;99338.91;;;12.34;60.50
30618;BME280;17384;51.214;9.202;2024-03-17T11:20:28;99328.09;;;12.21;60.48
30618;BME280;17384;51.214;9.202;2024-03-17T11:22:58;99321.53;;;12.35;60.07
30618;BME280;17384;51.214;9.202;2024-03-17T11:27:53;99344.44;;;13.73;55.93
30618;BME280;17384;51.214;9.202;2024-03-17T11:41:41;99317.03;;;13.05;56.72
30618;BME280;17384;51.214;9.202;2024-03-17T11:47:04;99316.16;;;12.22;58.74
30618;BME280;17384;51.214;9.202;2024-03-17T11:49:32;99312.44;;;11.97;60.83
30618;BME280;17384;51.214;9.202;2024-03-17T11:52:07;99295.50;;;11.95;60.69
30618;BME280;17384;51.214;9.202;2024-03-17T11:54:35;99308.22;;;12.14;58.54
30618;BME280;17384;51.214;9.202;2024-03-17T11:57:02;99304.06;;;12.63;58.86
30618;BME280;17384;51.214;9.202;2024-03-17T11:59:29;99303.44;;;12.61;58.65
30618;BME280;17384;51.214;9.202;2024-03-17T12:01:54;99294.69;;;11.68;60.64
30618;BME280;17384;51.214;9.202;2024-03-17T12:04:22;99295.53;;;11.68;61.35
30618;BME280;17384;51.214;9.202;2024-03-17T12:06:49;99293.44;;;11.44;60.25
30618;BME280;17384;51.214;9.202;2024-03-17T12:11:49;99286.75;;;11.79;59.03
30618;BME280;17384;51.214;9.202;2024-03-17T12:14:19;99278.78;;;11.78;58.91
30618;BME280;17384;51.214;9.202;2024-03-17T12:16:49;99282.28;;;12.05;61.02
30618;BME280;17384;51.214;9.202;2024-03-17T12:19:16;99288.72;;;12.30;59.51
30618;BME280;17384;51.214;9.202;2024-03-17T12:21:47;99280.03;;;12.02;59.79
30618;BME280;17384;51.214;9.202;2024-03-17T12:24:20;99296.97;;;11.84;59.30
30618;BME280;17384;51.214;9.202;2024-03-17T12:26:46;99282.03;;;12.26;60.44
30618;BME280;17384;51.214;9.202;2024-03-17T12:31:59;99280.16;;;12.20;59.62
30618;BME280;17384;51.214;9.202;2024-03-17T12:34:27;99282.53;;;11.97;60.67
30618;BME280;17384;51.214;9.202;2024-03-17T12:36:55;99267.28;;;11.82;60.25
30618;BME280;17384;51.214;9.202;2024-03-17T12:39:21;99256.50;;;12.27;62.13
30618;BME280;17384;51.214;9.202;2024-03-17T12:42:12;99266.25;;;11.83;60.73
30618;BME280;17384;51.214;9.202;2024-03-17T12:44:49;99254.75;;;11.68;60.81
30618;BME280;17384;51.214;9.202;2024-03-17T12:47:19;99259.56;;;11.66;61.10
30618;BME280;17384;51.214;9.202;2024-03-17T12:49:52;99241.41;;;11.40;60.44
30618;BME280;17384;51.214;9.202;2024-03-17T12:57:45;99251.66;;;11.18;62.82
30618;BME280;17384;51.214;9.202;2024-03-17T13:00:37;99253.94;;;11.41;62.09
30618;BME280;17384;51.214;9.202;2024-03-17T13:03:04;99254.78;;;11.42;61.49
30618;BME280;17384;51.214;9.202;2024-03-17T13:05:31;99248.69;;;11.73;62.75
30618;BME280;17384;51.214;9.202;2024-03-17T13:07:57;99253.69;;;11.82;61.35
30618;BME280;17384;51.214;9.202;2024-03-17T13:10:23;99259.13;;;11.76;59.90
30618;BME280;17384;51.214;9.202;2024-03-17T13:13:04;99262.28;;;11.53;59.67
30618;BME280;17384;51.214;9.202;2024-03-17T13:15:33;99250.78;;;11.71;60.29
30618;BME280;17384;51.214;9.202;2024-03-17T13:18:00;99256.63;;;11.61;60.88
30618;BME280;17384;51.214;9.202;2024-03-17T13:20:26;99249.75;;;11.45;62.08
30618;BME280;17384;51.214;9.202;2024-03-17T13:22:52;99241.63;;;11.45;62.94
30618;BME280;17384;51.214;9.202;2024-03-17T13:25:19;99226.56;;;11.30;63.45
30618;BME280;17384;51.214;9.202;2024-03-17T13:27:47;99222.38;;;11.01;63.23
30618;BME280;17384;51.214;9.202;2024-03-17T13:30:14;99211.53;;;10.81;64.08
30618;BME280;17384;51.214;9.202;2024-03-17T13:32:40;99222.59;;;10.86;62.27
30618;BME280;17384;51.214;9.202;2024-03-17T13:35:15;99211.94;;;11.24;62.54
30618;BME280;17384;51.214;9.202;2024-03-17T13:37:41;99211.94;;;11.44;62.78
30618;BME280;17384;51.214;9.202;2024-03-17T13:40:07;99207.75;;;11.22;64.08